Time;durP1;ratioP1;P1;durP2;ratioP2;P2;SDS_P1;SDS_P2;PMS_P1;PMS_P2;Temp;Humidity;BMP_temperature;BMP_pressure;BME280_temperature;BME280_humidity;BME280_pressure;Samples;Min_cycle;Max_cycle;Signal;HPM_P1;HPM_P2
2021/12/27 00:00:51;;;;;;;169.27;67.53;;;;;;;-11.71;100.00;98893.44;2079125;28;20457;-74
2021/12/27 00:01:53;;;;;;;155.63;64.40;;;;;;;-11.65;100.00;98892.78;2086983;28;20306;-74
2021/12/27 00:02:57;;;;;;;165.55;66.47;;;;;;;-11.66;100.00;98888.59;2087284;28;20227;-74
2021/12/27 00:04:01;;;;;;;165.10;65.18;;;;;;;-11.69;100.00;98881.22;2079647;28;20273;-74
2021/12/27 00:05:03;;;;;;;163.48;64.85;;;;;;;-11.71;100.00;98885.72;2087390;28;20594;-74
2021/12/27 00:06:09;;;;;;;157.00;64.75;;;;;;;-11.70;100.00;98895.84;2087517;28;20677;-74
2021/12/27 00:07:10;;;;;;;164.20;63.92;;;;;;;-11.74;100.00;98894.53;2086841;28;20250;-74
2021/12/27 00:08:13;;;;;;;159.48;64.60;;;;;;;-11.80;100.00;98887.50;2078478;28;20281;-74
2021/12/27 00:09:15;;;;;;;172.85;64.95;;;;;;;-11.81;100.00;98893.59;2078696;28;20242;-74
2021/12/27 00:10:18;;;;;;;171.30;66.53;;;;;;;-11.82;100.00;98891.16;2087346;28;20273;-74
2021/12/27 00:11:20;;;;;;;183.93;69.18;;;;;;;-11.83;100.00;98899.84;2087148;28;20650;-74
2021/12/27 00:12:21;;;;;;;172.88;66.78;;;;;;;-11.89;100.00;98890.19;2087219;28;20234;-74
2021/12/27 00:13:23;;;;;;;172.43;67.40;;;;;;;-11.90;100.00;98889.41;2086812;28;20233;-74
2021/12/27 00:14:23;;;;;;;176.30;66.22;;;;;;;-11.88;100.00;98884.09;2087234;28;20230;-74
2021/12/27 00:15:26;;;;;;;164.60;66.17;;;;;;;-11.85;100.00;98888.91;2095585;28;20306;-74
2021/12/27 00:16:27;;;;;;;171.00;66.80;;;;;;;-11.84;100.00;98890.53;2088097;28;20235;-74
2021/12/27 00:17:28;;;;;;;173.70;66.72;;;;;;;-11.78;100.00;98889.88;2087438;28;20219;-74
2021/12/27 00:18:32;;;;;;;167.48;65.53;;;;;;;-11.81;100.00;98888.47;2087522;28;20314;-74
2021/12/27 00:19:33;;;;;;;180.63;66.07;;;;;;;-11.87;100.00;98885.69;2079391;28;20678;-74
2021/12/27 00:20:35;;;;;;;170.87;67.90;;;;;;;-11.87;100.00;98888.28;2078991;28;20653;-74
2021/12/27 00:21:35;;;;;;;163.05;65.07;;;;;;;-11.86;100.00;98879.59;2087241;28;20219;-74
2021/12/27 00:22:37;;;;;;;173.43;65.87;;;;;;;-11.91;100.00;98886.97;2086962;28;20227;-74
2021/12/27 00:23:40;;;;;;;178.23;66.03;;;;;;;-11.90;100.00;98889.41;2078648;28;20227;-74
2021/12/27 00:24:46;;;;;;;168.75;66.03;;;;;;;-11.93;100.00;98884.56;2079317;28;20222;-74
2021/12/27 00:25:48;;;;;;;168.50;66.82;;;;;;;-11.91;100.00;98885.19;2079695;28;20246;-74
2021/12/27 00:26:49;;;;;;;165.50;65.65;;;;;;;-11.73;100.00;98891.03;2078925;28;20215;-74
2021/12/27 00:27:50;;;;;;;166.60;66.27;;;;;;;-11.77;100.00;98894.84;2079063;28;20254;-74
2021/12/27 00:28:51;;;;;;;165.35;65.55;;;;;;;-11.84;100.00;98882.81;2087263;28;20222;-74
2021/12/27 00:29:53;;;;;;;157.77;65.13;;;;;;;-11.86;100.00;98892.44;2086769;28;20289;-74
2021/12/27 00:30:56;;;;;;;165.15;65.22;;;;;;;-11.92;100.00;98886.16;2087015;28;20638;-74
2021/12/27 00:31:58;;;;;;;158.45;64.68;;;;;;;-11.99;100.00;98882.59;2087813;28;20558;-74
2021/12/27 00:32:59;;;;;;;173.35;64.88;;;;;;;-11.96;100.00;98886.66;2087483;28;20223;-74
2021/12/27 00:34:01;;;;;;;166.30;66.10;;;;;;;-12.00;100.00;98884.38;2079077;28;20685;-75
2021/12/27 00:35:02;;;;;;;173.32;68.03;;;;;;;-12.04;100.00;98887.41;2087119;28;20234;-74
2021/12/27 00:36:04;;;;;;;173.43;65.07;;;;;;;-12.05;100.00;98886.63;2086805;28;20215;-74
2021/12/27 00:37:05;;;;;;;160.70;64.18;;;;;;;-12.08;100.00;98892.06;2078840;28;20678;-74
2021/12/27 00:38:07;;;;;;;178.52;67.32;;;;;;;-12.09;100.00;98889.63;2087191;28;20272;-74
2021/12/27 00:39:10;;;;;;;180.13;68.97;;;;;;;-12.11;100.00;98894.94;2078520;28;20234;-74
2021/12/27 00:40:13;;;;;;;175.27;67.70;;;;;;;-12.12;100.00;98890.75;2087204;28;20314;-74
2021/12/27 00:41:14;;;;;;;171.68;66.65;;;;;;;-12.14;100.00;98887.56;2087126;28;20252;-74
2021/12/27 00:42:16;;;;;;;180.13;68.57;;;;;;;-12.19;100.00;98884.63;2078790;28;20247;-74
2021/12/27 00:43:17;;;;;;;175.02;67.63;;;;;;;-12.22;100.00;98887.53;2078828;28;20644;-74
2021/12/27 00:44:18;;;;;;;167.33;68.13;;;;;;;-12.24;100.00;98893.78;2078742;28;20241;-74
2021/12/27 00:45:20;;;;;;;170.73;65.78;;;;;;;-12.31;100.00;98884.13;2087024;28;20708;-74
2021/12/27 00:46:24;;;;;;;184.82;67.32;;;;;;;-12.33;100.00;98886.03;2087098;28;20250;-74
2021/12/27 00:47:26;;;;;;;173.23;70.03;;;;;;;-12.35;100.00;98890.50;2086760;28;20230;-74
2021/12/27 00:48:27;;;;;;;177.45;67.97;;;;;;;-12.38;100.00;98880.53;2086870;28;20323;-74
2021/12/27 00:49:28;;;;;;;177.77;65.28;;;;;;;-12.39;100.00;98883.28;2086826;28;20229;-74
2021/12/27 00:50:30;;;;;;;180.37;70.47;;;;;;;-12.40;100.00;98886.81;2086964;28;20249;-74
2021/12/27 00:51:31;;;;;;;177.93;68.18;;;;;;;-12.43;100.00;98884.53;2078611;28;20223;-74
2021/12/27 00:52:35;;;;;;;177.67;68.30;;;;;;;-12.43;100.00;98884.53;2078954;28;20907;-74
2021/12/27 00:53:37;;;;;;;170.38;67.75;;;;;;;-12.44;100.00;98888.06;2086798;28;20654;-74
2021/12/27 00:54:40;;;;;;;187.52;72.03;;;;;;;-12.46;100.00;98889.97;2087745;28;20306;-74
2021/12/27 00:55:41;;;;;;;180.13;73.40;;;;;;;-12.50;100.00;98880.97;2087731;28;20231;-74
2021/12/27 00:56:42;;;;;;;183.40;69.57;;;;;;;-12.51;100.00;98884.47;2087781;28;20315;-74
2021/12/27 00:57:45;;;;;;;166.43;65.90;;;;;;;-12.50;100.00;98886.13;2086700;28;20577;-74
2021/12/27 00:58:47;;;;;;;181.50;69.60;;;;;;;-12.55;100.00;98884.00;2086812;28;20226;-74
2021/12/27 00:59:49;;;;;;;189.77;71.32;;;;;;;-12.56;100.00;98888.31;2087038;28;20219;-74
2021/12/27 01:00:51;;;;;;;188.23;73.47;;;;;;;-12.57;100.00;98885.91;2086749;28;20322;-74
2021/12/27 01:01:52;;;;;;;185.90;70.25;;;;;;;-12.60;100.00;98884.44;2078451;28;20284;-74
2021/12/27 01:02:55;;;;;;;177.93;69.77;;;;;;;-12.61;100.00;98882.81;2086513;28;20680;-74
2021/12/27 01:03:56;;;;;;;177.65;71.65;;;;;;;-12.63;100.00;98881.38;2086852;28;20476;-74
2021/12/27 01:04:57;;;;;;;199.27;74.80;;;;;;;-12.64;100.00;98875.44;2086437;28;20313;-74
2021/12/27 01:05:59;;;;;;;190.23;76.57;;;;;;;-12.65;100.00;98876.41;2087022;28;20227;-74
2021/12/27 01:07:02;;;;;;;193.13;77.70;;;;;;;-12.63;100.00;98877.03;2086600;28;20250;-74
2021/12/27 01:08:05;;;;;;;203.52;76.70;;;;;;;-12.62;100.00;98878.66;2078742;28;20223;-74
2021/12/27 01:09:06;;;;;;;194.02;77.85;;;;;;;-12.62;100.00;98873.50;2086847;28;20226;-74
2021/12/27 01:10:29;;;;;;;202.30;77.40;;;;;;;-12.60;100.00;98874.16;2086476;28;20280;-74
2021/12/27 01:11:39;;;;;;;207.43;78.10;;;;;;;-12.62;100.00;98873.50;2086396;28;20927;-74
2021/12/27 01:12:50;;;;;;;194.43;78.55;;;;;;;-12.59;100.00;98873.22;2086363;28;20219;-74
2021/12/27 01:14:08;;;;;;;189.90;75.35;;;;;;;-12.59;100.00;98878.38;2086667;28;20283;-74
2021/12/27 01:15:12;;;;;;;201.50;77.40;;;;;;;-12.60;100.00;98876.72;2086194;28;20226;-74
2021/12/27 01:16:15;;;;;;;194.57;77.78;;;;;;;-12.55;100.00;98879.66;2086938;28;20230;-74
2021/12/27 01:17:16;;;;;;;198.38;77.07;;;;;;;-12.53;100.00;98881.25;2087556;28;20215;-74
2021/12/27 01:18:20;;;;;;;213.33;79.63;;;;;;;-12.53;100.00;98873.56;2086662;28;20245;-74
2021/12/27 01:19:21;;;;;;;213.10;77.82;;;;;;;-12.55;100.00;98881.44;2086749;28;20262;-74
2021/12/27 01:20:24;;;;;;;204.70;79.57;;;;;;;-12.50;100.00;98884.34;2086192;28;20265;-74
2021/12/27 01:21:27;;;;;;;215.43;81.38;;;;;;;-12.46;100.00;98882.28;2078959;28;20234;-74
2021/12/27 01:22:28;;;;;;;210.70;81.03;;;;;;;-12.49;100.00;98882.59;2079124;28;20302;-74
2021/12/27 01:23:30;;;;;;;203.27;79.33;;;;;;;-12.53;100.00;98878.69;2086619;28;20226;-74
2021/12/27 01:24:32;;;;;;;219.50;78.75;;;;;;;-12.55;100.00;98882.22;2094904;28;20634;-74
2021/12/27 01:25:34;;;;;;;211.10;79.03;;;;;;;-12.53;100.00;98876.13;2086655;28;20214;-74
2021/12/27 01:26:35;;;;;;;215.85;82.85;;;;;;;-12.53;100.00;98876.94;2086682;28;20609;-74
2021/12/27 01:27:38;;;;;;;204.20;81.38;;;;;;;-12.55;100.00;98873.72;2078468;28;20279;-74
2021/12/27 01:28:41;;;;;;;228.55;82.82;;;;;;;-12.57;100.00;98879.00;2086459;28;20233;-74
2021/12/27 01:29:41;;;;;;;207.63;78.30;;;;;;;-12.60;100.00;98876.72;2087477;28;20234;-74
2021/12/27 01:30:47;;;;;;;220.97;83.60;;;;;;;-12.60;100.00;98873.34;2086637;28;20215;-74
2021/12/27 01:31:48;;;;;;;212.18;82.28;;;;;;;-12.57;100.00;98881.59;2078478;28;20224;-74
2021/12/27 01:32:54;;;;;;;218.53;81.30;;;;;;;-12.51;100.00;98876.78;2078394;28;20223;-74
2021/12/27 01:33:56;;;;;;;212.77;81.68;;;;;;;-12.46;100.00;98877.13;2086174;28;20246;-74
2021/12/27 01:34:59;;;;;;;218.05;83.22;;;;;;;-12.43;100.00;98877.63;2087434;28;20226;-74
2021/12/27 01:36:01;;;;;;;215.80;84.13;;;;;;;-12.44;100.00;98880.34;2086742;28;20242;-74
2021/12/27 01:37:02;;;;;;;220.93;82.70;;;;;;;-12.46;100.00;98872.00;2086504;28;20219;-74
2021/12/27 01:38:03;;;;;;;232.52;83.85;;;;;;;-12.44;100.00;98877.78;2086670;28;20227;-74
2021/12/27 01:39:06;;;;;;;229.10;87.93;;;;;;;-12.49;100.00;98874.88;2086567;28;20248;-74
2021/12/27 01:40:09;;;;;;;226.60;83.82;;;;;;;-12.49;100.00;98882.59;2086111;28;20242;-74
2021/12/27 01:41:17;;;;;;;220.35;85.35;;;;;;;-12.44;100.00;98877.78;2078572;28;20702;-74
2021/12/27 01:42:18;;;;;;;209.80;83.25;;;;;;;-12.45;100.00;98878.75;2086509;28;20759;-73
2021/12/27 01:43:22;;;;;;;209.20;85.67;;;;;;;-12.45;100.00;98883.88;2087388;28;20582;-74
2021/12/27 01:44:24;;;;;;;217.85;83.47;;;;;;;-12.45;100.00;98876.16;2086247;28;20233;-74
2021/12/27 01:45:25;;;;;;;219.50;83.75;;;;;;;-12.45;100.00;98879.53;2086546;28;20692;-74
2021/12/27 01:46:28;;;;;;;215.75;86.88;;;;;;;-12.45;100.00;98873.59;2087341;28;20269;-74
2021/12/27 01:47:31;;;;;;;208.82;82.97;;;;;;;-12.47;100.00;98875.53;2086585;28;20302;-74
2021/12/27 01:48:37;;;;;;;226.35;85.28;;;;;;;-12.45;100.00;98878.75;2086562;28;20231;-74
2021/12/27 01:49:38;;;;;;;242.13;85.35;;;;;;;-12.45;100.00;98876.16;2085892;28;20230;-74
2021/12/27 01:50:43;;;;;;;227.48;85.88;;;;;;;-12.42;100.00;98881.81;2086583;28;20306;-74
2021/12/27 01:51:44;;;;;;;234.13;86.65;;;;;;;-12.41;100.00;98885.19;2086553;28;20234;-74
2021/12/27 01:52:46;;;;;;;216.98;83.03;;;;;;;-12.40;100.00;98885.03;2086239;28;20223;-74
2021/12/27 01:53:47;;;;;;;234.27;83.65;;;;;;;-12.39;100.00;98878.13;2086761;28;20229;-74
2021/12/27 01:54:51;;;;;;;222.10;86.00;;;;;;;-12.38;100.00;98883.13;2086678;28;20219;-74
2021/12/27 01:55:54;;;;;;;213.07;81.53;;;;;;;-12.33;100.00;98878.31;2086615;28;20313;-74
2021/12/27 01:56:58;;;;;;;218.23;83.13;;;;;;;-12.32;100.00;98879.13;2087230;28;20246;-74
2021/12/27 01:57:59;;;;;;;232.88;82.90;;;;;;;-12.23;100.00;98882.53;2087230;28;20226;-74
2021/12/27 01:59:01;;;;;;;218.77;78.93;;;;;;;-12.13;100.00;98876.31;2087201;28;20696;-74
2021/12/27 02:00:02;;;;;;;231.57;83.35;;;;;;;-12.11;100.00;98882.09;2086329;28;20249;-74
2021/12/27 02:01:10;;;;;;;245.35;84.63;;;;;;;-12.10;100.00;98880.31;2086573;28;20294;-74
2021/12/27 02:02:11;;;;;;;226.13;83.45;;;;;;;-12.08;100.00;98880.97;2086016;28;20230;-74
2021/12/27 02:03:15;;;;;;;221.23;82.10;;;;;;;-12.09;100.00;98885.31;2086513;28;20618;-74
2021/12/27 02:04:17;;;;;;;223.40;82.38;;;;;;;-12.14;100.00;98873.91;2087303;28;20218;-74
2021/12/27 02:05:18;;;;;;;207.43;84.72;;;;;;;-12.12;100.00;98877.09;2086442;28;20240;-74
2021/12/27 02:06:21;;;;;;;228.00;83.73;;;;;;;-12.11;100.00;98884.66;2086215;28;20233;-74
2021/12/27 02:07:21;;;;;;;223.40;84.47;;;;;;;-12.09;100.00;98885.31;2086223;28;20227;-74
2021/12/27 02:08:23;;;;;;;219.10;83.57;;;;;;;-12.08;100.00;98884.34;2086512;28;20768;-74
2021/12/27 02:09:35;;;;;;;219.68;80.50;;;;;;;-12.05;100.00;98876.34;2086224;28;20554;-74
2021/12/27 02:10:36;;;;;;;214.13;80.90;;;;;;;-12.05;100.00;98881.47;2086571;28;20723;-74
2021/12/27 02:11:38;;;;;;;218.57;81.07;;;;;;;-12.01;100.00;98882.75;2086776;28;20609;-74
2021/12/27 02:12:41;;;;;;;228.48;82.30;;;;;;;-11.97;100.00;98878.13;2087249;28;20583;-74
2021/12/27 02:13:44;;;;;;;211.10;79.57;;;;;;;-11.91;100.00;98885.19;2086466;28;20785;-74
2021/12/27 02:14:45;;;;;;;198.65;81.35;;;;;;;-11.94;100.00;98884.72;2086224;28;20621;-74
2021/12/27 02:15:48;;;;;;;210.63;82.03;;;;;;;-11.91;100.00;98871.53;2086370;28;20318;-74
2021/12/27 02:16:49;;;;;;;219.30;83.22;;;;;;;-11.91;100.00;98872.34;2086433;28;20232;-74
2021/12/27 02:17:51;;;;;;;212.63;80.60;;;;;;;-11.92;100.00;98868.16;2087040;28;20231;-74
2021/12/27 02:18:52;;;;;;;213.52;82.53;;;;;;;-11.90;100.00;98863.69;2085972;28;20241;-74
2021/12/27 02:19:55;;;;;;;204.33;79.50;;;;;;;-11.70;100.00;98864.16;2078085;28;20227;-74
2021/12/27 02:20:56;;;;;;;200.07;80.15;;;;;;;-11.70;100.00;98864.16;2078349;28;20227;-74
2021/12/27 02:21:58;;;;;;;199.30;77.30;;;;;;;-11.65;100.00;98859.31;2086417;28;20310;-74
2021/12/27 02:23:02;;;;;;;200.45;79.93;;;;;;;-11.62;100.00;98866.75;2087069;28;20620;-74
2021/12/27 02:24:07;;;;;;;208.35;78.72;;;;;;;-11.60;100.00;98867.38;2086231;28;20222;-74
2021/12/27 02:25:09;;;;;;;198.93;77.95;;;;;;;-11.61;100.00;98858.06;2085851;28;20222;-74
2021/12/27 02:26:11;;;;;;;205.27;79.68;;;;;;;-11.65;100.00;98866.25;2078472;28;20219;-74
2021/12/27 02:27:14;;;;;;;198.10;77.25;;;;;;;-11.74;100.00;98853.38;2078199;28;20234;-74
2021/12/27 02:28:17;;;;;;;199.50;81.32;;;;;;;-11.66;100.00;98860.28;2086360;28;20575;-74
2021/12/27 02:29:17;;;;;;;196.55;75.93;;;;;;;-11.62;100.00;98856.47;2086125;28;20632;-74
2021/12/27 02:30:22;;;;;;;206.83;79.27;;;;;;;-11.66;100.00;98856.91;2086228;28;20246;-74
2021/12/27 02:31:23;;;;;;;208.73;78.88;;;;;;;-11.70;100.00;98849.53;2077470;28;20231;-74
2021/12/27 02:32:24;;;;;;;202.45;80.43;;;;;;;-11.73;100.00;98855.00;2086126;28;20728;-74
2021/12/27 02:33:25;;;;;;;194.00;76.75;;;;;;;-11.76;100.00;98845.00;2087107;28;20572;-74
2021/12/27 02:34:27;;;;;;;200.20;78.20;;;;;;;-11.76;100.00;98851.94;2087150;28;20219;-74
2021/12/27 02:35:32;;;;;;;208.25;79.32;;;;;;;-11.78;100.00;98851.28;2086218;28;20463;-74
2021/12/27 02:36:35;;;;;;;213.18;80.22;;;;;;;-11.85;100.00;98845.19;2086368;28;20664;-74
2021/12/27 02:37:36;;;;;;;196.98;76.75;;;;;;;-11.86;100.00;98844.38;2086138;28;20689;-74
2021/12/27 02:38:41;;;;;;;197.37;79.40;;;;;;;-11.88;100.00;98841.19;2085915;28;20655;-74
2021/12/27 02:39:43;;;;;;;197.38;75.93;;;;;;;-11.84;100.00;98841.66;2086162;28;20450;-74
2021/12/27 02:40:46;;;;;;;199.25;80.53;;;;;;;-11.81;100.00;98831.06;2086254;28;20626;-74
2021/12/27 02:41:46;;;;;;;186.00;76.30;;;;;;;-11.71;100.00;98847.13;2086076;28;20227;-74
2021/12/27 02:42:56;;;;;;;198.53;77.00;;;;;;;-11.63;100.00;98839.41;2078357;28;20236;-74
2021/12/27 02:43:59;;;;;;;200.95;78.68;;;;;;;-11.68;100.00;98839.06;2078700;28;20674;-74
2021/12/27 02:45:05;;;;;;;190.50;76.28;;;;;;;-11.70;100.00;98835.88;2086359;28;20222;-74
2021/12/27 02:46:09;;;;;;;193.32;74.47;;;;;;;-11.57;100.00;98843.09;2086218;28;20227;-74
2021/12/27 02:47:10;;;;;;;204.93;74.85;;;;;;;-11.56;100.00;98844.69;2077965;28;20223;-74
2021/12/27 02:48:13;;;;;;;202.07;77.07;;;;;;;-11.58;100.00;98849.22;2078060;28;20223;-74
2021/12/27 02:49:14;;;;;;;195.70;76.88;;;;;;;-11.52;100.00;98846.81;2078371;28;20227;-74
2021/12/27 02:50:16;;;;;;;212.50;77.82;;;;;;;-11.54;100.00;98848.75;2086203;28;20232;-74
2021/12/27 02:51:20;;;;;;;195.35;75.55;;;;;;;-11.56;100.00;98849.84;2086102;28;20325;-74
2021/12/27 02:52:21;;;;;;;193.23;75.72;;;;;;;-11.54;100.00;98847.94;2078353;28;20247;-74
2021/12/27 02:53:23;;;;;;;200.17;77.00;;;;;;;-11.44;100.00;98841.66;2085908;28;20229;-74
2021/12/27 02:54:24;;;;;;;206.52;77.32;;;;;;;-11.36;100.00;98855.50;2086129;28;20226;-74
2021/12/27 02:55:27;;;;;;;194.13;72.93;;;;;;;-11.22;100.00;98853.06;2077987;28;20223;-74
2021/12/27 02:56:29;;;;;;;199.98;73.68;;;;;;;-11.07;100.00;98848.06;2078184;28;20716;-74
2021/12/27 02:57:30;;;;;;;191.38;75.97;;;;;;;-11.12;100.00;98852.91;2086315;28;20271;-74
2021/12/27 02:58:32;;;;;;;209.73;78.33;;;;;;;-11.20;100.00;98847.78;2087039;28;20223;-74
2021/12/27 02:59:33;;;;;;;200.05;75.95;;;;;;;-11.30;100.00;98847.13;2086109;28;20588;-74
2021/12/27 03:00:37;;;;;;;185.17;73.73;;;;;;;-11.30;100.00;98847.13;2086277;28;20312;-74
2021/12/27 03:01:38;;;;;;;200.77;79.10;;;;;;;-11.29;100.00;98851.28;2086353;28;20229;-74
2021/12/27 03:02:40;;;;;;;186.63;76.15;;;;;;;-11.32;100.00;98843.91;2086989;28;20280;-74
2021/12/27 03:03:41;;;;;;;194.38;73.90;;;;;;;-11.30;100.00;98839.41;2086832;28;20249;-74
2021/12/27 03:04:46;;;;;;;207.30;78.85;;;;;;;-11.28;100.00;98848.59;2086974;28;20242;-74
2021/12/27 03:05:47;;;;;;;193.75;77.43;;;;;;;-11.38;100.00;98839.41;2086522;28;20234;-74
2021/12/27 03:06:51;;;;;;;200.85;74.65;;;;;;;-11.39;100.00;98848.88;2085894;28;20263;-74
2021/12/27 03:07:52;;;;;;;182.50;76.18;;;;;;;-11.15;100.00;98853.22;2085800;28;20227;-74
2021/12/27 03:08:54;;;;;;;207.48;77.72;;;;;;;-11.13;100.00;98848.72;2086130;28;20247;-74
2021/12/27 03:09:58;;;;;;;205.30;78.68;;;;;;;-11.24;100.00;98843.91;2086843;28;20568;-74
2021/12/27 03:11:01;;;;;;;210.95;77.43;;;;;;;-11.25;100.00;98837.16;2086401;28;20219;-74
2021/12/27 03:12:02;;;;;;;201.85;75.50;;;;;;;-11.25;100.00;98839.72;2086158;28;20223;-74
2021/12/27 03:13:05;;;;;;;212.98;80.35;;;;;;;-11.33;100.00;98837.16;2086076;28;20241;-74
2021/12/27 03:14:06;;;;;;;198.30;78.75;;;;;;;-11.32;100.00;98831.03;2078392;28;20223;-74
2021/12/27 03:15:10;;;;;;;194.37;76.57;;;;;;;-11.36;100.00;98835.72;2085753;28;20276;-74
2021/12/27 03:16:13;;;;;;;206.00;78.35;;;;;;;-11.38;100.00;98821.38;2078127;28;20740;-74
2021/12/27 03:17:14;;;;;;;192.07;75.88;;;;;;;-11.42;100.00;98826.84;2086342;28;20635;-74
2021/12/27 03:18:15;;;;;;;203.45;77.32;;;;;;;-11.40;100.00;98834.41;2094233;28;20226;-74
2021/12/27 03:19:18;;;;;;;195.15;76.25;;;;;;;-11.43;100.00;98825.25;2094512;28;20571;-74
2021/12/27 03:20:21;;;;;;;186.80;72.75;;;;;;;-11.47;100.00;98829.09;2086088;28;20223;-74
2021/12/27 03:21:23;;;;;;;183.30;75.18;;;;;;;-11.52;100.00;98830.56;2085793;28;20250;-74
2021/12/27 03:22:25;;;;;;;186.57;76.97;;;;;;;-11.43;100.00;98824.44;2086228;28;20219;-74
2021/12/27 03:23:27;;;;;;;189.10;72.38;;;;;;;-11.36;100.00;98833.13;2086182;28;20600;-74
2021/12/27 03:24:28;;;;;;;186.50;73.82;;;;;;;-11.31;100.00;98832.63;2086928;28;20215;-74
2021/12/27 03:25:33;;;;;;;190.40;75.60;;;;;;;-11.32;100.00;98838.75;2086969;28;20265;-74
2021/12/27 03:26:39;;;;;;;193.70;78.93;;;;;;;-11.24;100.00;98838.75;2086784;28;20277;-74
2021/12/27 03:27:41;;;;;;;197.77;75.47;;;;;;;-11.32;100.00;98838.75;2085628;28;20252;-74
2021/12/27 03:28:43;;;;;;;193.77;71.40;;;;;;;-11.22;100.00;98831.66;2077815;28;20227;-74
2021/12/27 03:29:44;;;;;;;156.57;59.45;;;;;;;-11.01;100.00;98834.56;2077832;28;20226;-74
2021/12/27 03:30:46;;;;;;;168.93;69.60;;;;;;;-11.12;100.00;98842.59;2086065;28;20306;-74
2021/12/27 03:31:47;;;;;;;155.27;61.08;;;;;;;-11.09;100.00;98842.28;2086732;28;20223;-74
2021/12/27 03:32:51;;;;;;;169.97;69.23;;;;;;;-11.23;100.00;98840.38;2085890;28;20636;-74
2021/12/27 03:33:55;;;;;;;162.50;64.75;;;;;;;-11.36;100.00;98830.56;2077709;28;20227;-74
2021/12/27 03:35:03;;;;;;;168.93;62.75;;;;;;;-11.32;100.00;98844.72;2078348;28;20700;-74
2021/12/27 03:36:08;;;;;;;170.07;66.15;;;;;;;-11.32;100.00;98846.47;2086155;28;20226;-74
2021/12/27 03:37:09;;;;;;;179.43;61.78;;;;;;;-11.33;100.00;98844.88;2085428;28;20225;-74
2021/12/27 03:38:12;;;;;;;166.47;65.87;;;;;;;-11.33;100.00;98847.44;2077738;28;20224;-74
2021/12/27 03:39:14;;;;;;;162.88;63.80;;;;;;;-11.34;100.00;98858.72;2086169;28;20233;-74
2021/12/27 03:40:18;;;;;;;167.40;62.47;;;;;;;-11.32;100.00;98852.44;2086161;28;20705;-74
2021/12/27 03:41:20;;;;;;;165.98;65.60;;;;;;;-11.36;100.00;98856.31;2085969;28;20230;-74
2021/12/27 03:42:22;;;;;;;163.70;67.28;;;;;;;-11.37;100.00;98848.75;2086079;28;20226;-74
2021/12/27 03:43:23;;;;;;;178.65;66.28;;;;;;;-11.45;100.00;98846.97;2085541;28;20219;-74
2021/12/27 03:44:24;;;;;;;167.63;66.40;;;;;;;-11.30;100.00;98852.25;2087457;28;20223;-74
2021/12/27 03:45:27;;;;;;;148.73;63.45;;;;;;;-11.32;100.00;98851.63;2087356;28;20240;-74
2021/12/27 03:46:29;;;;;;;153.80;60.17;;;;;;;-11.21;100.00;98851.28;2087611;28;20692;-74
2021/12/27 03:47:31;;;;;;;152.02;61.88;;;;;;;-11.27;100.00;98855.34;2095630;28;20218;-74
2021/12/27 03:48:33;;;;;;;149.25;60.47;;;;;;;-11.31;100.00;98853.22;2087447;28;20775;-75
2021/12/27 03:49:33;;;;;;;127.90;52.53;;;;;;;-11.29;100.00;98856.44;2087603;28;20696;-74
2021/12/27 03:50:36;;;;;;;156.43;61.57;;;;;;;-11.36;100.00;98860.66;2087402;28;20632;-74
2021/12/27 03:51:43;;;;;;;149.77;58.72;;;;;;;-11.51;100.00;98853.56;2087053;28;20234;-74
2021/12/27 03:52:45;;;;;;;152.98;60.38;;;;;;;-11.58;100.00;98847.44;2087441;28;20255;-74
2021/12/27 03:53:49;;;;;;;146.63;57.00;;;;;;;-11.66;100.00;98860.28;2087422;28;20563;-74
2021/12/27 03:54:52;;;;;;;148.23;60.38;;;;;;;-11.69;100.00;98861.44;2087588;28;20269;-74
2021/12/27 03:55:53;;;;;;;137.88;57.95;;;;;;;-11.46;100.00;98859.03;2087021;28;20227;-74
2021/12/27 03:56:55;;;;;;;127.90;53.33;;;;;;;-11.33;100.00;98863.69;2087520;28;20277;-74
2021/12/27 03:58:06;;;;;;;151.85;60.03;;;;;;;-11.38;100.00;98862.56;2087414;28;20223;-74
2021/12/27 03:59:21;;;;;;;139.27;57.65;;;;;;;-11.45;100.00;98863.22;2087308;28;20723;-74
2021/12/27 04:00:33;;;;;;;141.32;55.95;;;;;;;-11.54;100.00;98858.22;2086914;28;20219;-74
2021/12/27 04:01:37;;;;;;;133.30;53.17;;;;;;;-11.61;100.00;98868.34;2087363;28;20603;-74
2021/12/27 04:02:38;;;;;;;117.97;50.03;;;;;;;-11.47;100.00;98864.31;2087141;28;20214;-74
2021/12/27 04:03:39;;;;;;;127.77;52.03;;;;;;;-11.55;100.00;98856.59;2087277;28;20315;-74
2021/12/27 04:04:41;;;;;;;116.45;50.33;;;;;;;-11.56;100.00;98865.28;2087325;28;20706;-74
2021/12/27 04:05:42;;;;;;;111.63;48.88;;;;;;;-11.64;100.00;98862.69;2087287;28;20284;-74
2021/12/27 04:06:43;;;;;;;111.25;49.28;;;;;;;-11.66;100.00;98857.72;2078828;28;20683;-74
2021/12/27 04:07:56;;;;;;;117.90;48.27;;;;;;;-11.73;100.00;98861.88;2087450;28;20393;-74
2021/12/27 04:09:01;;;;;;;109.07;46.17;;;;;;;-11.83;100.00;98858.69;2087827;28;21354;-74
2021/12/27 04:10:03;;;;;;;103.03;46.38;;;;;;;-11.74;100.00;98847.41;2087340;28;20256;-74
2021/12/27 04:11:04;;;;;;;92.70;42.22;;;;;;;-11.63;100.00;98852.28;2087533;28;20681;-74
2021/12/27 04:12:06;;;;;;;101.03;44.63;;;;;;;-11.68;100.00;98851.94;2088036;28;20218;-74
2021/12/27 04:13:09;;;;;;;82.30;38.10;;;;;;;-11.59;100.00;98845.84;2087604;28;20769;-74
2021/12/27 04:14:10;;;;;;;92.10;43.30;;;;;;;-11.63;100.00;98854.06;2087215;28;20226;-74
2021/12/27 04:15:12;;;;;;;91.13;43.57;;;;;;;-11.76;100.00;98841.63;2079002;28;20223;-74
2021/12/27 04:16:14;;;;;;;91.43;40.65;;;;;;;-11.72;100.00;98853.22;2079337;28;20219;-74
2021/12/27 04:17:15;;;;;;;90.47;40.33;;;;;;;-11.70;100.00;98857.25;2087416;28;20306;-74
2021/12/27 04:18:17;;;;;;;96.37;43.13;;;;;;;-11.76;100.00;98849.34;2088119;28;20249;-74
2021/12/27 04:19:18;;;;;;;94.32;40.92;;;;;;;-11.76;100.00;98849.34;2088095;28;20246;-74
2021/12/27 04:20:21;;;;;;;94.97;42.57;;;;;;;-11.74;100.00;98855.13;2086963;28;20233;-74
2021/12/27 04:21:23;;;;;;;97.45;42.10;;;;;;;-11.69;100.00;98853.72;2086794;28;20234;-74
2021/12/27 04:22:26;;;;;;;87.03;42.10;;;;;;;-11.73;100.00;98849.03;2087095;28;20250;-74
2021/12/27 04:23:27;;;;;;;87.90;38.03;;;;;;;-11.73;100.00;98851.59;2087956;28;20307;-74
2021/12/27 04:24:30;;;;;;;81.85;38.03;;;;;;;-11.65;100.00;98854.19;2087186;28;20233;-74
2021/12/27 04:25:31;;;;;;;77.40;38.00;;;;;;;-11.58;100.00;98854.34;2078922;28;20220;-74
2021/12/27 04:26:32;;;;;;;81.35;38.15;;;;;;;-11.57;100.00;98849.03;2079113;28;20223;-74
2021/12/27 04:27:34;;;;;;;79.77;38.37;;;;;;;-11.55;100.00;98862.59;2078796;28;20247;-74
2021/12/27 04:28:37;;;;;;;71.55;36.83;;;;;;;-11.58;100.00;98855.16;2078986;28;20223;-74
2021/12/27 04:29:38;;;;;;;85.70;37.13;;;;;;;-11.42;100.00;98851.78;2078739;28;20662;-74
2021/12/27 04:30:40;;;;;;;82.37;38.90;;;;;;;-11.36;100.00;98852.94;2087249;28;20249;-74
2021/12/27 04:31:41;;;;;;;79.05;38.05;;;;;;;-11.33;100.00;98852.59;2087056;28;20461;-74
2021/12/27 04:32:43;;;;;;;85.53;38.10;;;;;;;-11.35;100.00;98854.53;2086925;28;20230;-74
2021/12/27 04:33:45;;;;;;;75.63;37.28;;;;;;;-11.31;100.00;98841.16;2087384;28;20219;-74
2021/12/27 04:34:45;;;;;;;69.25;37.13;;;;;;;-11.36;100.00;98848.59;2087053;28;20601;-74
2021/12/27 04:35:47;;;;;;;87.40;37.63;;;;;;;-11.37;100.00;98851.31;2087265;28;20310;-74
2021/12/27 04:36:49;;;;;;;82.68;36.90;;;;;;;-11.31;100.00;98855.81;2086900;28;20254;-74
2021/12/27 04:37:50;;;;;;;76.57;35.95;;;;;;;-11.12;100.00;98861.47;2087178;28;20616;-74
2021/12/27 04:38:52;;;;;;;79.35;36.67;;;;;;;-11.10;100.00;98858.72;2087889;28;20681;-74